Time;durP1;ratioP1;P1;durP2;ratioP2;P2;SDS_P1;SDS_P2;PMS_P1;PMS_P2;Temp;Humidity;BMP_temperature;BMP_pressure;BME280_temperature;BME280_humidity;BME280_pressure;Samples;Min_cycle;Max_cycle;Signal;HPM_P1;HPM_P2
2022/05/28 00:00:56;;;;;;;1.77;1.10;;;10.80;99.90;;;;;;5071218;28;20103;-78
2022/05/28 00:03:23;;;;;;;5.38;1.33;;;10.70;99.90;;;;;;5070177;28;20016;-79
2022/05/28 00:05:49;;;;;;;2.85;1.20;;;10.60;99.90;;;;;;5070233;28;20104;-79
2022/05/28 00:08:15;;;;;;;3.95;1.30;;;10.50;99.90;;;;;;5084622;28;20024;-79
2022/05/28 00:10:42;;;;;;;2.85;1.48;;;10.40;99.90;;;;;;5090028;28;20077;-79
2022/05/28 00:13:08;;;;;;;2.53;1.20;;;10.20;99.90;;;;;;5071540;28;20035;-78
2022/05/28 00:15:33;;;;;;;2.25;0.98;;;10.10;99.90;;;;;;5090348;28;20385;-78
2022/05/28 00:17:59;;;;;;;2.47;1.15;;;10.20;99.90;;;;;;5090496;28;20075;-78
2022/05/28 00:20:26;;;;;;;2.88;0.75;;;10.20;99.90;;;;;;5090028;28;20387;-78
2022/05/28 00:22:52;;;;;;;1.02;0.90;;;10.20;99.90;;;;;;5090787;28;20106;-79
2022/05/28 00:25:18;;;;;;;2.40;0.90;;;10.20;99.90;;;;;;5089448;28;20099;-78
2022/05/28 00:27:44;;;;;;;1.75;0.88;;;10.10;99.90;;;;;;5089586;28;20028;-79
2022/05/28 00:30:13;;;;;;;5.60;0.90;;;10.20;99.90;;;;;;5089791;28;20070;-78
2022/05/28 00:32:40;;;;;;;5.93;1.42;;;10.20;99.90;;;;;;5083729;28;20020;-79
2022/05/28 00:35:09;;;;;;;2.22;1.35;;;10.30;99.90;;;;;;5089686;28;20511;-78
2022/05/28 00:37:35;;;;;;;2.00;1.10;;;10.40;99.90;;;;;;5088156;28;20078;-78
2022/05/28 00:40:04;;;;;;;3.05;0.75;;;10.40;99.90;;;;;;5071881;28;20119;-78
2022/05/28 00:42:30;;;;;;;1.10;0.82;;;10.30;99.90;;;;;;5089418;28;20489;-78
2022/05/28 00:44:56;;;;;;;3.90;1.05;;;10.30;99.90;;;;;;5090414;28;20109;-78
2022/05/28 00:47:22;;;;;;;7.00;0.93;;;10.30;99.90;;;;;;5090708;28;20027;-78
2022/05/28 00:49:48;;;;;;;1.15;0.80;;;10.30;99.90;;;;;;5090061;28;20024;-78
2022/05/28 00:52:16;;;;;;;3.50;0.77;;;10.30;99.90;;;;;;5090301;28;20077;-78
2022/05/28 00:54:45;;;;;;;3.80;1.17;;;10.30;99.90;;;;;;5090502;28;20052;-79
2022/05/28 00:57:13;;;;;;;2.45;0.80;;;10.40;99.90;;;;;;5107039;22;20055;-80
2022/05/28 00:59:39;;;;;;;2.95;0.93;;;10.50;99.90;;;;;;5051690;28;20044;-81
2022/05/28 01:02:21;;;;;;;5.00;0.93;;;10.60;99.90;;;;;;5050571;28;20033;-81
2022/05/28 01:04:59;;;;;;;1.63;0.80;;;10.60;99.90;;;;;;5029842;28;20033;-80
2022/05/28 01:07:57;;;;;;;1.13;0.90;;;10.60;99.90;;;;;;5029687;28;20386;-81
2022/05/28 01:10:41;;;;;;;2.42;0.80;;;10.50;99.90;;;;;;5049923;28;20473;-81
2022/05/28 01:13:22;;;;;;;3.90;0.75;;;10.50;99.90;;;;;;5050624;28;20024;-81
2022/05/28 01:15:57;;;;;;;0.93;0.70;;;10.50;99.90;;;;;;5050546;28;20473;-80
2022/05/28 01:18:34;;;;;;;2.80;0.90;;;10.40;99.90;;;;;;5032383;28;20037;-80
2022/05/28 01:21:06;;;;;;;4.07;0.90;;;10.50;99.90;;;;;;5050689;28;20096;-80
2022/05/28 01:23:54;;;;;;;;;;;10.40;99.90;;;;;;5043957;28;20505;-80
2022/05/28 01:26:44;;;;;;;3.00;1.00;;;10.40;99.90;;;;;;5041748;28;19927;-81
2022/05/28 01:29:15;;;;;;;2.85;1.20;;;10.30;99.90;;;;;;5049672;28;20037;-81
2022/05/28 01:31:42;;;;;;;2.03;0.55;;;10.30;99.90;;;;;;5050022;28;20027;-80
2022/05/28 01:34:09;;;;;;;2.17;0.80;;;10.20;99.90;;;;;;5032267;28;20028;-80
2022/05/28 01:36:37;;;;;;;2.97;0.90;;;10.20;99.90;;;;;;5050099;28;20425;-81
2022/05/28 01:39:04;;;;;;;2.95;1.40;;;10.20;99.90;;;;;;5049476;28;20029;-80
2022/05/28 01:41:31;;;;;;;3.33;0.90;;;10.10;99.90;;;;;;5049846;28;20014;-80
2022/05/28 01:43:58;;;;;;;1.85;1.00;;;10.10;99.90;;;;;;5050540;28;20021;-80
2022/05/28 01:46:28;;;;;;;3.22;0.88;;;10.10;99.90;;;;;;5053385;28;20029;-80
2022/05/28 01:48:55;;;;;;;2.15;1.02;;;10.00;99.90;;;;;;5050644;28;20039;-80
2022/05/28 01:51:34;;;;;;;3.92;1.17;;;9.90;99.90;;;;;;5050160;28;20013;-80
2022/05/28 01:54:09;;;;;;;2.20;0.90;;;9.90;99.90;;;;;;5050195;28;20466;-80
2022/05/28 01:56:40;;;;;;;2.20;0.82;;;9.80;99.90;;;;;;5049665;28;20013;-80
2022/05/28 01:59:37;;;;;;;1.98;0.93;;;9.80;99.90;;;;;;5066539;28;20505;-78
2022/05/28 02:02:06;;;;;;;2.65;0.77;;;9.80;99.90;;;;;;5051961;28;20017;-78
2022/05/28 02:04:34;;;;;;;0.70;0.70;;;9.80;99.90;;;;;;5069886;28;20021;-79
2022/05/28 02:07:02;;;;;;;1.60;0.90;;;9.80;99.90;;;;;;5069413;28;20012;-78
2022/05/28 02:09:42;;;;;;;1.58;0.80;;;9.70;99.90;;;;;;5070078;28;20024;-78
2022/05/28 02:12:30;;;;;;;6.05;1.42;;;9.60;99.90;;;;;;5069608;28;20350;-78
2022/05/28 02:15:15;;;;;;;2.72;0.88;;;9.50;99.90;;;;;;5069971;28;20108;-78
2022/05/28 02:17:47;;;;;;;4.15;1.10;;;9.50;99.90;;;;;;5069534;28;20028;-78
2022/05/28 02:20:34;;;;;;;3.80;1.33;;;9.50;99.90;;;;;;5051672;28;20021;-78
2022/05/28 02:23:08;;;;;;;2.78;0.90;;;9.40;99.90;;;;;;5073746;28;20020;-78
2022/05/28 02:25:40;;;;;;;1.52;0.80;;;9.40;99.90;;;;;;5073360;28;20025;-78
2022/05/28 02:28:09;;;;;;;3.00;1.00;;;9.40;99.90;;;;;;5048622;28;20107;-78
2022/05/28 02:30:49;;;;;;;1.95;0.90;;;9.40;99.90;;;;;;5072981;28;20020;-78
2022/05/28 02:33:15;;;;;;;1.58;1.00;;;9.50;99.90;;;;;;5073608;28;20385;-78
2022/05/28 02:35:41;;;;;;;0.80;0.80;;;9.50;99.90;;;;;;5073228;28;20024;-78
2022/05/28 02:38:07;;;;;;;5.10;1.38;;;9.50;99.90;;;;;;5073294;28;20033;-78
2022/05/28 02:40:33;;;;;;;3.15;0.80;;;9.50;99.90;;;;;;5072553;28;20016;-78
2022/05/28 02:42:58;;;;;;;2.78;1.05;;;9.50;99.90;;;;;;5073282;28;20024;-78
2022/05/28 02:45:24;;;;;;;1.45;1.15;;;9.40;99.90;;;;;;5073193;28;20031;-78
2022/05/28 02:47:50;;;;;;;1.65;1.10;;;9.30;99.90;;;;;;5073064;28;20021;-78
2022/05/28 02:50:15;;;;;;;1.10;0.60;;;9.30;99.90;;;;;;5054959;28;20021;-78
2022/05/28 02:52:43;;;;;;;2.25;0.82;;;9.20;99.90;;;;;;5073251;28;20016;-78
2022/05/28 02:55:09;;;;;;;2.00;1.25;;;9.20;99.90;;;;;;5054848;28;20030;-78
2022/05/28 02:57:35;;;;;;;1.60;1.10;;;9.10;99.90;;;;;;5082867;22;20132;-81
2022/05/28 03:00:01;;;;;;;2.17;0.82;;;9.10;99.90;;;;;;5034586;28;20025;-81
2022/05/28 03:02:28;;;;;;;2.60;0.80;;;9.00;99.90;;;;;;5052756;28;20024;-81
2022/05/28 03:04:54;;;;;;;2.38;1.05;;;9.00;99.90;;;;;;5034556;28;20029;-81
2022/05/28 03:07:20;;;;;;;3.58;1.20;;;8.90;99.90;;;;;;5052625;28;20029;-81
2022/05/28 03:09:46;;;;;;;2.25;1.20;;;8.90;99.90;;;;;;5033827;28;20469;-81
2022/05/28 03:12:11;;;;;;;4.72;1.73;;;8.90;99.90;;;;;;5034538;28;20029;-81
2022/05/28 03:14:37;;;;;;;4.78;0.93;;;8.80;99.90;;;;;;5052581;28;20108;-80
2022/05/28 03:17:03;;;;;;;5.22;0.85;;;8.80;99.90;;;;;;5052591;28;20028;-81
2022/05/28 03:19:29;;;;;;;1.60;1.10;;;8.70;99.90;;;;;;5034315;28;20041;-81
2022/05/28 03:21:55;;;;;;;3.47;1.00;;;8.70;99.90;;;;;;5052532;28;20147;-81
2022/05/28 03:24:20;;;;;;;2.97;1.08;;;8.80;99.90;;;;;;5052463;28;20029;-81
2022/05/28 03:26:46;;;;;;;2.30;1.17;;;8.70;99.90;;;;;;5052365;28;20028;-81
2022/05/28 03:29:12;;;;;;;4.22;1.42;;;8.70;99.90;;;;;;5052262;28;20051;-81
2022/05/28 03:31:37;;;;;;;1.95;1.30;;;8.50;99.90;;;;;;5052503;28;20158;-81
2022/05/28 03:34:03;;;;;;;1.70;1.02;;;8.50;99.90;;;;;;5051652;28;20397;-81
2022/05/28 03:36:29;;;;;;;1.48;1.05;;;8.40;99.90;;;;;;5051669;28;20471;-81
2022/05/28 03:38:56;;;;;;;2.30;1.08;;;8.50;99.90;;;;;;5045067;28;20071;-81
2022/05/28 03:41:22;;;;;;;1.58;1.10;;;8.50;99.90;;;;;;5051519;28;20021;-81
2022/05/28 03:43:49;;;;;;;5.90;1.15;;;8.60;99.90;;;;;;5051778;28;20100;-81
2022/05/28 03:46:42;;;;;;;3.22;1.10;;;8.60;99.90;;;;;;5034525;28;20021;-81
2022/05/28 03:49:18;;;;;;;0.70;0.70;;;8.70;99.90;;;;;;5050604;28;20037;-81
2022/05/28 03:51:44;;;;;;;0.70;0.70;;;8.70;99.90;;;;;;5045980;28;20013;-81
2022/05/28 03:54:09;;;;;;;5.55;1.20;;;8.70;99.90;;;;;;5051975;28;20136;-81
2022/05/28 03:56:38;;;;;;;3.75;1.15;;;8.60;99.90;;;;;;5052068;28;20020;-81
2022/05/28 03:59:06;;;;;;;1.17;0.90;;;8.50;99.90;;;;;;5090937;23;20052;-78
2022/05/28 04:01:32;;;;;;;3.50;0.85;;;8.60;99.90;;;;;;5071493;28;20024;-78
2022/05/28 04:03:58;;;;;;;3.15;1.27;;;8.70;99.90;;;;;;5071540;28;20099;-78
2022/05/28 04:06:24;;;;;;;2.50;1.02;;;8.80;99.90;;;;;;5071885;28;20438;-78
2022/05/28 04:08:49;;;;;;;2.13;0.80;;;8.80;99.90;;;;;;5071122;28;20012;-78
2022/05/28 04:11:17;;;;;;;6.13;0.90;;;8.90;99.90;;;;;;5071472;28;20488;-78
2022/05/28 04:13:43;;;;;;;2.22;0.80;;;8.90;99.90;;;;;;5071516;28;20047;-77
2022/05/28 04:16:09;;;;;;;1.95;0.60;;;8.90;99.90;;;;;;5071416;28;20028;-78
2022/05/28 04:18:35;;;;;;;3.08;0.90;;;9.00;99.90;;;;;;5071579;28;20094;-78
2022/05/28 04:21:01;;;;;;;4.35;0.93;;;9.00;99.90;;;;;;5071593;28;20099;-78
2022/05/28 04:23:27;;;;;;;2.45;0.98;;;9.00;99.90;;;;;;5052833;28;20099;-78
2022/05/28 04:25:52;;;;;;;1.92;0.77;;;9.10;99.90;;;;;;5071282;28;20439;-78
2022/05/28 04:28:18;;;;;;;5.93;1.13;;;9.20;99.90;;;;;;5070588;28;20021;-78
2022/05/28 04:30:44;;;;;;;1.65;0.90;;;9.20;99.90;;;;;;5070838;28;20016;-79
2022/05/28 04:33:09;;;;;;;3.20;0.60;;;9.20;99.90;;;;;;5070821;28;20024;-78
2022/05/28 04:35:35;;;;;;;0.50;0.50;;;9.20;99.90;;;;;;5070905;28;20373;-78
2022/05/28 04:38:01;;;;;;;3.42;0.90;;;9.10;99.90;;;;;;5071258;28;20033;-78
2022/05/28 04:40:27;;;;;;;5.30;0.82;;;9.10;99.90;;;;;;5071353;28;20027;-78
2022/05/28 04:42:53;;;;;;;2.28;1.17;;;9.20;99.90;;;;;;5070748;28;20021;-78
2022/05/28 04:45:19;;;;;;;1.17;0.93;;;9.20;99.90;;;;;;5070403;28;20027;-78
2022/05/28 04:47:44;;;;;;;2.33;1.00;;;9.20;99.90;;;;;;5070733;28;20374;-78
2022/05/28 04:50:11;;;;;;;2.20;1.10;;;9.20;99.90;;;;;;5070799;28;20027;-78
2022/05/28 04:52:38;;;;;;;2.55;0.85;;;9.20;99.90;;;;;;5071309;28;20012;-78
2022/05/28 04:55:06;;;;;;;3.30;1.02;;;9.30;99.90;;;;;;5070903;28;20424;-78
2022/05/28 04:57:32;;;;;;;1.33;0.68;;;9.30;99.90;;;;;;5086062;22;20038;-80
2022/05/28 04:59:58;;;;;;;1.45;0.70;;;9.40;99.90;;;;;;5070775;28;20103;-81
2022/05/28 05:02:23;;;;;;;1.38;0.80;;;9.40;99.90;;;;;;5070472;28;20096;-81
2022/05/28 05:04:55;;;;;;;2.58;1.30;;;9.40;99.90;;;;;;5052673;28;20059;-81
2022/05/28 05:07:21;;;;;;;3.63;0.93;;;9.30;99.90;;;;;;5070519;28;20484;-81
2022/05/28 05:09:46;;;;;;;0.82;0.70;;;9.40;99.90;;;;;;5070962;28;20033;-81
2022/05/28 05:12:12;;;;;;;1.98;0.77;;;9.40;99.90;;;;;;5069697;28;20500;-81
2022/05/28 05:14:37;;;;;;;1.35;0.93;;;9.40;99.90;;;;;;5070501;28;20447;-81
2022/05/28 05:17:04;;;;;;;1.27;0.52;;;9.30;99.90;;;;;;5070530;28;20099;-81
2022/05/28 05:19:29;;;;;;;2.10;0.80;;;9.40;99.90;;;;;;5070272;28;20132;-81
2022/05/28 05:21:55;;;;;;;1.30;0.95;;;9.40;99.90;;;;;;5052408;28;20103;-81
2022/05/28 05:24:22;;;;;;;5.45;0.80;;;9.40;99.90;;;;;;5070919;28;20055;-82
2022/05/28 05:26:48;;;;;;;2.75;0.90;;;9.30;99.90;;;;;;5069966;28;20024;-81
2022/05/28 05:29:14;;;;;;;2.65;0.90;;;9.30;99.90;;;;;;5070292;28;20043;-81
2022/05/28 05:31:40;;;;;;;2.38;0.70;;;9.30;99.90;;;;;;5070772;28;20519;-81
2022/05/28 05:34:07;;;;;;;1.85;0.60;;;9.30;99.90;;;;;;5070232;28;20135;-81
2022/05/28 05:36:33;;;;;;;7.40;1.10;;;9.30;99.90;;;;;;5051950;28;20838;-81
2022/05/28 05:38:59;;;;;;;4.25;0.98;;;9.40;99.90;;;;;;5070035;28;20039;-81
2022/05/28 05:41:24;;;;;;;2.25;0.73;;;9.30;99.90;;;;;;5069967;28;20012;-80
2022/05/28 05:43:50;;;;;;;3.13;0.65;;;9.30;99.90;;;;;;5070252;28;20029;-80
2022/05/28 05:46:16;;;;;;;2.78;0.90;;;9.40;99.90;;;;;;5070616;28;20038;-81
2022/05/28 05:48:42;;;;;;;2.38;0.73;;;9.40;99.90;;;;;;5070219;28;20056;-81
2022/05/28 05:51:14;;;;;;;3.95;0.90;;;9.50;99.90;;;;;;5069879;28;20021;-81
2022/05/28 05:53:40;;;;;;;5.05;1.20;;;9.50;99.90;;;;;;5052587;28;20032;-80
2022/05/28 05:56:06;;;;;;;6.45;0.80;;;9.60;99.90;;;;;;5070739;28;20033;-81
2022/05/28 05:58:34;;;;;;;1.40;1.08;;;9.70;99.90;;;;;;5100922;22;20619;-78
2022/05/28 06:01:02;;;;;;;2.70;1.10;;;9.80;99.90;;;;;;5094347;28;20012;-78
2022/05/28 06:03:28;;;;;;;1.00;0.60;;;10.00;99.90;;;;;;5094549;28;20113;-78
2022/05/28 06:05:58;;;;;;;2.50;0.70;;;10.00;99.90;;;;;;5094247;28;20016;-78
2022/05/28 06:08:25;;;;;;;4.00;0.93;;;10.10;99.90;;;;;;5093518;28;20161;-78
2022/05/28 06:10:50;;;;;;;4.60;1.35;;;10.20;99.90;;;;;;5093915;28;20016;-78
2022/05/28 06:13:16;;;;;;;3.47;0.98;;;10.50;99.90;;;;;;5075240;28;20024;-78
2022/05/28 06:15:42;;;;;;;2.30;0.80;;;10.70;99.90;;;;;;5093915;28;20127;-78
2022/05/28 06:18:08;;;;;;;3.72;0.93;;;11.10;99.90;;;;;;5093957;28;20040;-78
2022/05/28 06:20:34;;;;;;;3.38;0.60;;;11.60;99.90;;;;;;5093951;28;20023;-78
2022/05/28 06:23:01;;;;;;;1.67;0.80;;;12.00;99.90;;;;;;5093542;28;20055;-78
2022/05/28 06:25:27;;;;;;;0.85;0.60;;;12.10;99.90;;;;;;5094120;28;20020;-78
2022/05/28 06:27:53;;;;;;;2.67;0.90;;;12.40;99.90;;;;;;5086202;28;20103;-78
2022/05/28 06:30:19;;;;;;;4.22;1.20;;;12.40;99.90;;;;;;5092809;28;20052;-78
2022/05/28 06:32:45;;;;;;;2.15;1.08;;;12.50;99.90;;;;;;5093763;28;20052;-78
2022/05/28 06:35:11;;;;;;;2.83;0.68;;;12.80;99.90;;;;;;5094070;28;20024;-77
2022/05/28 06:37:36;;;;;;;2.08;0.60;;;12.80;99.90;;;;;;5093275;28;20040;-79
2022/05/28 06:40:03;;;;;;;4.22;0.80;;;12.70;99.90;;;;;;5093337;28;20020;-78
2022/05/28 06:42:28;;;;;;;0.73;0.43;;;12.60;99.90;;;;;;5093719;28;20081;-78
2022/05/28 06:44:55;;;;;;;3.13;0.60;;;12.60;99.90;;;;;;5093122;28;20377;-78
2022/05/28 06:47:22;;;;;;;3.38;0.85;;;12.40;99.90;;;;;;5093377;28;20019;-77
2022/05/28 06:51:01;;;;;;;4.55;0.70;;;12.50;99.90;;;;;;5093491;28;20100;-78
2022/05/28 06:52:33;;;;;;;2.70;1.02;;;12.50;99.90;;;;;;5087087;28;20016;-77
2022/05/28 06:54:59;;;;;;;2.80;0.88;;;12.40;99.90;;;;;;5092893;28;20035;-78
2022/05/28 06:57:25;;;;;;;1.05;0.50;;;12.30;99.90;;;;;;5092971;28;22411;-78
2022/05/28 06:59:50;;;;;;;3.45;0.40;;;12.30;99.90;;;;;;5093110;28;20064;-78
2022/05/28 07:02:16;;;;;;;3.60;0.75;;;12.30;99.90;;;;;;5093670;28;20457;-78
2022/05/28 07:04:44;;;;;;;2.88;0.88;;;12.20;99.90;;;;;;5092738;28;20036;-78
2022/05/28 07:07:09;;;;;;;1.25;0.75;;;12.30;99.90;;;;;;5092929;28;20126;-79
2022/05/28 07:09:35;;;;;;;2.00;0.55;;;12.30;99.90;;;;;;5073992;28;20046;-79
2022/05/28 07:12:01;;;;;;;1.33;0.77;;;12.40;99.90;;;;;;5073996;28;20024;-79
2022/05/28 07:14:26;;;;;;;3.15;0.60;;;12.40;99.90;;;;;;5075050;28;20472;-76
2022/05/28 07:16:52;;;;;;;3.20;0.90;;;12.40;99.90;;;;;;5098053;28;20548;-76
2022/05/28 07:19:18;;;;;;;5.60;0.77;;;12.50;99.90;;;;;;5075502;28;20036;-79
2022/05/28 07:21:43;;;;;;;2.20;0.60;;;12.50;99.90;;;;;;5093055;28;20039;-76
2022/05/28 07:24:09;;;;;;;6.40;0.82;;;12.50;99.90;;;;;;5092942;28;20066;-83
2022/05/28 07:26:35;;;;;;;3.55;0.80;;;12.60;99.90;;;;;;5074492;28;20054;-80
2022/05/28 07:29:00;;;;;;;3.03;0.60;;;12.60;99.90;;;;;;5101993;22;20037;-78
2022/05/28 07:31:26;;;;;;;6.25;0.80;;;12.60;99.90;;;;;;5071653;28;20469;-80
2022/05/28 07:33:52;;;;;;;4.88;0.70;;;12.60;99.90;;;;;;5071931;28;20038;-79
2022/05/28 07:36:23;;;;;;;2.05;0.70;;;12.70;99.90;;;;;;5072119;28;20099;-80
2022/05/28 07:38:51;;;;;;;1.05;0.50;;;12.80;99.90;;;;;;5069508;28;20446;-79
2022/05/28 07:41:23;;;;;;;4.22;0.65;;;12.80;99.90;;;;;;5090362;28;20024;-80
2022/05/28 07:43:48;;;;;;;;;;;12.80;99.90;;;;;;5084553;28;20020;-80
2022/05/28 07:46:23;;;;;;;3.00;0.82;;;12.90;99.90;;;;;;5090949;28;19961;-80
2022/05/28 07:48:49;;;;;;;0.45;0.45;;;13.00;99.90;;;;;;5091549;28;20020;-80
2022/05/28 07:51:15;;;;;;;4.63;0.50;;;13.00;99.90;;;;;;5073239;28;20114;-80
2022/05/28 07:53:41;;;;;;;4.10;1.00;;;13.10;99.90;;;;;;5093740;28;20115;-81
2022/05/28 07:56:08;;;;;;;4.25;0.68;;;13.10;99.90;;;;;;5087366;28;20028;-80
2022/05/28 07:58:35;;;;;;;2.28;0.50;;;13.10;99.90;;;;;;5092692;28;20028;-81
2022/05/28 08:01:01;;;;;;;2.90;0.47;;;13.20;99.90;;;;;;5094237;28;20027;-81
2022/05/28 08:03:27;;;;;;;2.35;0.50;;;13.20;99.90;;;;;;5090724;28;20096;-82
2022/05/28 08:05:55;;;;;;;0.80;0.47;;;13.30;99.90;;;;;;5090937;28;20508;-81
2022/05/28 08:08:22;;;;;;;0.90;0.40;;;13.40;99.90;;;;;;5073505;28;20039;-80
2022/05/28 08:10:48;;;;;;;4.57;0.47;;;13.40;99.90;;;;;;5091007;28;20020;-80
2022/05/28 08:13:16;;;;;;;1.67;0.40;;;13.50;99.90;;;;;;5094035;28;20015;-79
2022/05/28 08:15:44;;;;;;;1.70;0.60;;;13.70;99.90;;;;;;5090858;28;20028;-78
2022/05/28 08:18:12;;;;;;;2.92;0.52;;;13.80;99.90;;;;;;5091101;28;20367;-84
2022/05/28 08:23:22;;;;;;;2.50;0.60;;;14.00;98.30;;;;;;5085437;28;20031;-81
2022/05/28 08:25:48;;;;;;;2.58;0.50;;;14.20;97.10;;;;;;5073723;28;20032;-81
2022/05/28 08:28:17;;;;;;;2.83;1.15;;;14.40;97.40;;;;;;5098393;22;20044;-78
2022/05/28 08:30:43;;;;;;;0.98;0.45;;;14.80;95.10;;;;;;5070650;28;20074;-80
2022/05/28 08:33:10;;;;;;;2.05;0.52;;;15.20;94.30;;;;;;5053113;28;20422;-77
2022/05/28 08:35:37;;;;;;;1.52;0.65;;;15.70;93.30;;;;;;5051327;28;20027;-78
2022/05/28 08:38:10;;;;;;;1.52;0.40;;;16.60;88.30;;;;;;5070969;28;20500;-80
2022/05/28 08:40:45;;;;;;;2.50;0.55;;;17.70;80.50;;;;;;5065993;28;20013;-81
2022/05/28 08:43:13;;;;;;;1.45;0.52;;;18.90;74.10;;;;;;5070830;28;20073;-78
2022/05/28 08:45:39;;;;;;;2.40;0.47;;;19.90;66.40;;;;;;5070891;28;20024;-79
2022/05/28 08:48:06;;;;;;;1.95;0.40;;;20.70;63.40;;;;;;5070861;28;20027;-79
2022/05/28 08:50:39;;;;;;;0.95;0.40;;;21.00;61.80;;;;;;5045939;28;20056;-80
2022/05/28 08:53:20;;;;;;;3.85;0.40;;;21.40;54.20;;;;;;5057626;28;20031;-81
2022/05/28 08:55:49;;;;;;;3.13;0.40;;;22.10;57.40;;;;;;5054033;28;20025;-81
2022/05/28 08:58:19;;;;;;;2.33;0.20;;;22.60;54.90;;;;;;5072409;28;20125;-82
2022/05/28 09:00:46;;;;;;;2.67;0.20;;;23.00;53.60;;;;;;5057025;28;20031;-81
2022/05/28 09:03:14;;;;;;;2.67;0.30;;;23.90;50.20;;;;;;5062596;28;20085;-81
2022/05/28 09:05:52;;;;;;;1.02;0.20;;;24.50;46.10;;;;;;5056468;28;20389;-81
2022/05/28 09:08:48;;;;;;;2.17;0.35;;;24.90;46.10;;;;;;5058630;28;20123;-82
2022/05/28 09:11:40;;;;;;;1.80;0.30;;;24.40;42.60;;;;;;5052149;28;20024;-81
2022/05/28 09:14:25;;;;;;;3.28;0.30;;;24.10;41.80;;;;;;5069745;28;20432;-82
2022/05/28 09:17:04;;;;;;;2.28;0.45;;;24.00;44.80;;;;;;5070755;28;20028;-83
2022/05/28 09:19:37;;;;;;;0.85;0.20;;;25.30;45.00;;;;;;5070471;28;20036;-83
2022/05/28 09:22:03;;;;;;;2.17;0.10;;;26.30;41.30;;;;;;5070304;28;20024;-82
2022/05/28 09:24:31;;;;;;;1.48;0.20;;;27.10;41.00;;;;;;5070142;28;20098;-82
2022/05/28 12:06:31;;;;;;;3.20;0.22;;;27.10;38.60;;;;;;5068282;28;20373;-81
2022/05/28 12:08:59;;;;;;;2.20;0.30;;;26.10;36.70;;;;;;5053620;28;20025;-81
2022/05/28 12:11:31;;;;;;;3.13;0.30;;;25.20;41.30;;;;;;5047519;28;20486;-82
2022/05/28 12:13:57;;;;;;;;;;;24.80;40.20;;;;;;5048653;28;20029;-81
2022/05/28 12:16:30;;;;;;;1.15;0.20;;;23.30;42.70;;;;;;5048270;28;19904;-79
2022/05/28 12:18:56;;;;;;;1.48;0.25;;;23.50;42.50;;;;;;5046209;28;20099;-79
2022/05/28 12:21:33;;;;;;;2.38;0.40;;;23.80;44.90;;;;;;5054350;28;20096;-79
2022/05/28 12:24:23;;;;;;;4.05;0.47;;;24.60;42.70;;;;;;5047999;28;20047;-79
2022/05/28 12:32:12;;;;;;;2.50;0.32;;;28.10;40.40;;;;;;5009111;28;20022;-78
2022/05/28 12:34:40;;;;;;;2.13;0.40;;;29.70;37.20;;;;;;5023491;28;20030;-81
2022/05/28 12:37:17;;;;;;;4.03;0.45;;;30.60;34.20;;;;;;5008067;28;20041;-81
2022/05/28 12:40:10;;;;;;;0.85;0.30;;;32.10;31.80;;;;;;4988351;28;20464;-79
2022/05/28 12:42:36;;;;;;;2.40;0.32;;;30.30;32.80;;;;;;4988359;28;20038;-81
2022/05/28 12:45:37;;;;;;;1.00;0.40;;;30.30;38.50;;;;;;4988323;28;20022;-81
2022/05/28 12:48:22;;;;;;;2.27;0.30;;;29.60;32.20;;;;;;4978719;28;20065;-80
2022/05/28 12:51:00;;;;;;;0.40;0.20;;;26.60;38.40;;;;;;4982642;28;20788;-81
2022/05/28 12:53:28;;;;;;;2.15;0.70;;;26.10;39.30;;;;;;4981598;28;20023;-81
2022/05/28 12:56:07;;;;;;;2.10;0.35;;;25.60;39.20;;;;;;4988373;28;20058;-82
2022/05/28 12:58:36;;;;;;;0.60;0.30;;;25.10;38.10;;;;;;4987200;28;20057;-85
2022/05/28 13:01:05;;;;;;;0.90;0.30;;;24.20;40.70;;;;;;4989807;28;20026;-81
2022/05/28 13:03:41;;;;;;;1.42;0.40;;;23.80;41.50;;;;;;4988394;28;20145;-85
2022/05/28 13:06:13;;;;;;;0.80;0.22;;;23.60;45.60;;;;;;4994877;28;20440;-86
2022/05/28 13:08:59;;;;;;;3.40;0.60;;;24.10;44.80;;;;;;4987362;28;20383;-86
2022/05/28 13:11:34;;;;;;;2.17;0.22;;;26.10;37.70;;;;;;4988861;28;20027;-86
2022/05/28 13:14:29;;;;;;;0.20;0.13;;;27.30;38.00;;;;;;4984715;28;20027;-84
2022/05/28 13:17:01;;;;;;;2.13;0.20;;;27.20;38.30;;;;;;4980394;28;20014;-87
2022/05/28 13:19:46;;;;;;;;;;;27.50;34.30;;;;;;5006255;28;20034;-87
2022/05/28 13:22:29;;;;;;;0.98;0.30;;;29.10;33.80;;;;;;4974167;28;20393;-85
2022/05/28 13:25:20;;;;;;;0.65;0.30;;;30.20;34.90;;;;;;4975202;28;20049;-88
2022/05/28 13:28:09;;;;;;;2.78;0.40;;;32.60;32.90;;;;;;5009593;22;20041;-81
2022/05/28 13:30:41;;;;;;;2.13;0.30;;;29.00;35.50;;;;;;4999911;28;20037;-80
2022/05/28 13:33:09;;;;;;;;;;;26.10;39.00;;;;;;4995254;28;20061;-81
2022/05/28 13:35:46;;;;;;;3.95;0.55;;;24.80;43.60;;;;;;4993832;28;19906;-81
2022/05/28 13:38:17;;;;;;;2.88;0.43;;;23.80;45.50;;;;;;4993781;28;20463;-80
2022/05/28 13:40:43;;;;;;;2.38;0.35;;;23.20;46.60;;;;;;4994150;28;20109;-81
2022/05/28 13:43:12;;;;;;;1.52;0.40;;;23.40;46.50;;;;;;4993092;28;20045;-81
2022/05/28 13:45:41;;;;;;;1.88;0.50;;;24.60;48.10;;;;;;4993871;28;20034;-81
2022/05/28 13:48:14;;;;;;;0.32;0.10;;;24.60;46.50;;;;;;4994215;28;20064;-81
2022/05/28 13:50:45;;;;;;;2.45;0.75;;;24.90;44.50;;;;;;4993890;28;20029;-81
2022/05/28 13:53:21;;;;;;;3.92;1.10;;;25.00;49.50;;;;;;4993853;28;20022;-81
2022/05/28 13:55:47;;;;;;;0.73;0.20;;;25.30;45.80;;;;;;4993371;28;20610;-81
2022/05/28 13:58:24;;;;;;;2.72;0.20;;;25.10;46.80;;;;;;4993441;28;20098;-81
2022/05/28 14:00:54;;;;;;;2.38;0.40;;;24.40;44.80;;;;;;4987973;28;20076;-81
2022/05/28 14:03:27;;;;;;;0.95;0.30;;;25.00;45.10;;;;;;4999230;28;20027;-81
2022/05/28 14:05:54;;;;;;;2.50;0.60;;;26.00;43.20;;;;;;4993675;28;20034;-81
2022/05/28 14:08:27;;;;;;;1.30;0.30;;;26.00;42.60;;;;;;4993581;28;20026;-81
2022/05/28 14:11:13;;;;;;;1.90;0.45;;;25.00;44.00;;;;;;4998849;28;20120;-81
2022/05/28 14:13:50;;;;;;;0.68;0.30;;;24.00;45.10;;;;;;4993547;28;20082;-81
2022/05/28 14:16:32;;;;;;;1.60;0.30;;;23.40;47.00;;;;;;4988080;28;20026;-81
2022/05/28 14:19:01;;;;;;;1.63;0.40;;;25.00;49.90;;;;;;4993495;28;20030;-81
2022/05/28 14:21:33;;;;;;;4.13;0.50;;;28.60;45.00;;;;;;4993315;28;20026;-81
2022/05/28 14:24:02;;;;;;;3.03;0.30;;;30.90;37.50;;;;;;4992271;28;20852;-81
2022/05/28 14:26:28;;;;;;;2.58;0.50;;;30.60;37.50;;;;;;4992895;28;20034;-81
2022/05/28 14:28:54;;;;;;;2.35;0.40;;;29.00;38.70;;;;;;4992658;28;20046;-81
2022/05/28 14:31:22;;;;;;;1.42;0.38;;;26.80;40.10;;;;;;4993250;28;20065;-81
2022/05/28 14:33:54;;;;;;;1.20;0.47;;;25.30;42.70;;;;;;4993425;28;20029;-81
2022/05/28 14:36:33;;;;;;;2.50;0.82;;;23.50;45.70;;;;;;4993166;28;20480;-81
2022/05/28 14:39:10;;;;;;;2.90;0.68;;;22.70;49.80;;;;;;4992545;28;20113;-83
2022/05/28 14:41:37;;;;;;;4.97;0.70;;;21.50;52.90;;;;;;4992107;28;20086;-83
2022/05/28 14:44:03;;;;;;;3.28;0.80;;;21.00;55.40;;;;;;4994403;28;20069;-83
2022/05/28 14:46:39;;;;;;;2.97;0.55;;;20.50;57.80;;;;;;4993009;28;20077;-83
2022/05/28 14:49:08;;;;;;;5.07;0.88;;;20.20;60.90;;;;;;4992821;28;20014;-84
2022/05/28 14:51:39;;;;;;;3.08;0.63;;;20.10;62.10;;;;;;4992620;28;20460;-83
2022/05/28 14:54:17;;;;;;;1.75;0.45;;;19.90;62.50;;;;;;4992486;28;20057;-84
2022/05/28 14:56:43;;;;;;;1.08;0.70;;;19.80;62.00;;;;;;4991059;28;20130;-83
2022/05/28 14:59:20;;;;;;;4.43;0.75;;;21.20;62.80;;;;;;5007527;28;20447;-83
2022/05/28 15:01:46;;;;;;;3.60;0.77;;;24.80;53.80;;;;;;4992610;28;20605;-83
2022/05/28 15:04:15;;;;;;;1.52;0.60;;;27.80;48.00;;;;;;4992532;28;20037;-84
2022/05/28 15:07:03;;;;;;;4.00;0.57;;;29.90;43.20;;;;;;4991433;28;20042;-83
2022/05/28 15:09:30;;;;;;;2.05;0.40;;;30.50;38.90;;;;;;4993750;28;20056;-85
2022/05/28 15:12:17;;;;;;;3.55;0.40;;;30.40;38.60;;;;;;4990561;28;21173;-84
2022/05/28 15:14:43;;;;;;;2.13;0.50;;;28.60;39.80;;;;;;4988959;28;20026;-88
2022/05/28 15:17:09;;;;;;;2.47;0.50;;;26.80;42.10;;;;;;4988240;28;20022;-85
2022/05/28 15:19:35;;;;;;;5.05;0.50;;;24.60;44.20;;;;;;4986342;28;20403;-89
2022/05/28 15:22:15;;;;;;;2.72;0.50;;;23.00;50.00;;;;;;4987139;28;20529;-86
2022/05/28 15:24:42;;;;;;;1.88;0.30;;;22.10;53.60;;;;;;4990429;28;20176;-85
2022/05/28 15:27:10;;;;;;;1.92;0.50;;;21.60;56.40;;;;;;4987885;28;20026;-86
2022/05/28 15:29:37;;;;;;;1.63;0.50;;;21.00;57.20;;;;;;4987198;28;20022;-86
2022/05/28 15:32:04;;;;;;;1.63;0.35;;;20.70;59.60;;;;;;4986865;28;20091;-85
2022/05/28 15:34:30;;;;;;;1.80;0.65;;;20.50;60.70;;;;;;4987736;28;20026;-85
2022/05/28 15:39:40;;;;;;;1.50;0.50;;;23.30;59.00;;;;;;4987300;28;20037;-84
2022/05/28 15:42:07;;;;;;;1.25;0.28;;;25.70;48.20;;;;;;4989218;28;20267;-83
2022/05/28 15:44:34;;;;;;;1.45;0.40;;;26.00;45.30;;;;;;4987169;28;20061;-83
2022/05/28 15:46:59;;;;;;;1.17;0.43;;;26.70;49.50;;;;;;4986780;28;20022;-84
2022/05/28 15:49:25;;;;;;;0.95;0.38;;;27.30;46.60;;;;;;4987285;28;20023;-86
2022/05/28 15:51:51;;;;;;;1.40;0.40;;;28.10;46.10;;;;;;4988575;28;20026;-82
2022/05/28 15:54:17;;;;;;;1.75;0.57;;;26.90;42.70;;;;;;4986773;28;20022;-85